sensor_id;sensor_type;location;lat;lon;timestamp;P1;durP1;ratioP1;P2;durP2;ratioP2
19830;SDS011;10076;52.008;4.708;2022-10-23T00:01:14;8.20;;;4.47;;
19830;SDS011;10076;52.008;4.708;2022-10-23T00:03:43;9.27;;;4.68;;
19830;SDS011;10076;52.008;4.708;2022-10-23T00:06:09;8.05;;;4.68;;
19830;SDS011;10076;52.008;4.708;2022-10-23T00:08:36;9.00;;;4.68;;
19830;SDS011;10076;52.008;4.708;2022-10-23T00:11:09;7.20;;;4.63;;
19830;SDS011;10076;52.008;4.708;2022-10-23T00:13:35;11.13;;;4.95;;
19830;SDS011;10076;52.008;4.708;2022-10-23T00:16:01;7.72;;;4.45;;
19830;SDS011;10076;52.008;4.708;2022-10-23T00:18:27;9.07;;;4.38;;
19830;SDS011;10076;52.008;4.708;2022-10-23T00:20:52;9.52;;;4.85;;
19830;SDS011;10076;52.008;4.708;2022-10-23T00:23:18;8.65;;;4.40;;
19830;SDS011;10076;52.008;4.708;2022-10-23T00:25:43;7.65;;;4.43;;
19830;SDS011;10076;52.008;4.708;2022-10-23T00:28:09;8.27;;;4.75;;
19830;SDS011;10076;52.008;4.708;2022-10-23T00:30:34;7.43;;;4.38;;
19830;SDS011;10076;52.008;4.708;2022-10-23T00:32:59;7.07;;;4.47;;
19830;SDS011;10076;52.008;4.708;2022-10-23T00:35:25;9.50;;;4.93;;
19830;SDS011;10076;52.008;4.708;2022-10-23T00:37:50;8.95;;;5.13;;
19830;SDS011;10076;52.008;4.708;2022-10-23T00:40:15;10.65;;;4.53;;
19830;SDS011;10076;52.008;4.708;2022-10-23T00:42:40;6.93;;;4.47;;
19830;SDS011;10076;52.008;4.708;2022-10-23T00:47:36;14.23;;;4.90;;
19830;SDS011;10076;52.008;4.708;2022-10-23T00:50:03;11.05;;;5.30;;
19830;SDS011;10076;52.008;4.708;2022-10-23T00:52:29;7.68;;;4.82;;
19830;SDS011;10076;52.008;4.708;2022-10-23T00:54:55;6.05;;;3.88;;
19830;SDS011;10076;52.008;4.708;2022-10-23T00:57:20;5.57;;;4.00;;
19830;SDS011;10076;52.008;4.708;2022-10-23T00:59:46;5.70;;;4.22;;
19830;SDS011;10076;52.008;4.708;2022-10-23T01:02:11;7.63;;;4.50;;
19830;SDS011;10076;52.008;4.708;2022-10-23T01:04:37;9.23;;;4.70;;
19830;SDS011;10076;52.008;4.708;2022-10-23T01:07:04;9.85;;;4.28;;
19830;SDS011;10076;52.008;4.708;2022-10-23T01:09:38;9.52;;;4.47;;
19830;SDS011;10076;52.008;4.708;2022-10-23T01:15:41;5.93;;;4.03;;
19830;SDS011;10076;52.008;4.708;2022-10-23T01:18:05;5.55;;;3.70;;
19830;SDS011;10076;52.008;4.708;2022-10-23T01:23:29;5.78;;;4.25;;
19830;SDS011;10076;52.008;4.708;2022-10-23T01:29:00;10.18;;;4.72;;
19830;SDS011;10076;52.008;4.708;2022-10-23T01:31:32;8.73;;;5.38;;
19830;SDS011;10076;52.008;4.708;2022-10-23T01:34:07;9.40;;;4.67;;
19830;SDS011;10076;52.008;4.708;2022-10-23T01:36:37;14.47;;;5.53;;
19830;SDS011;10076;52.008;4.708;2022-10-23T01:39:14;6.73;;;4.03;;
19830;SDS011;10076;52.008;4.708;2022-10-23T01:41:47;9.13;;;3.92;;
19830;SDS011;10076;52.008;4.708;2022-10-23T01:47:07;5.53;;;3.70;;
19830;SDS011;10076;52.008;4.708;2022-10-23T01:49:35;9.52;;;4.10;;
19830;SDS011;10076;52.008;4.708;2022-10-23T01:52:04;8.13;;;4.00;;
19830;SDS011;10076;52.008;4.708;2022-10-23T01:54:32;7.13;;;4.25;;
19830;SDS011;10076;52.008;4.708;2022-10-23T01:57:02;8.45;;;4.40;;
19830;SDS011;10076;52.008;4.708;2022-10-23T01:59:31;10.15;;;4.70;;
19830;SDS011;10076;52.008;4.708;2022-10-23T02:02:00;7.88;;;4.15;;
19830;SDS011;10076;52.008;4.708;2022-10-23T02:04:29;9.68;;;4.38;;
19830;SDS011;10076;52.008;4.708;2022-10-23T02:06:57;11.32;;;4.20;;
19830;SDS011;10076;52.008;4.708;2022-10-23T02:09:23;6.35;;;4.00;;
19830;SDS011;10076;52.008;4.708;2022-10-23T02:12:08;8.98;;;4.63;;
19830;SDS011;10076;52.008;4.708;2022-10-23T02:20:13;9.25;;;4.43;;
19830;SDS011;10076;52.008;4.708;2022-10-23T02:23:34;7.47;;;4.20;;
19830;SDS011;10076;52.008;4.708;2022-10-23T02:25:48;11.20;;;5.07;;
19830;SDS011;10076;52.008;4.708;2022-10-23T02:28:21;8.18;;;4.25;;
19830;SDS011;10076;52.008;4.708;2022-10-23T02:30:50;8.73;;;4.30;;
19830;SDS011;10076;52.008;4.708;2022-10-23T02:33:16;10.30;;;4.65;;
19830;SDS011;10076;52.008;4.708;2022-10-23T02:35:42;8.57;;;4.30;;
19830;SDS011;10076;52.008;4.708;2022-10-23T02:49:34;7.90;;;4.90;;
19830;SDS011;10076;52.008;4.708;2022-10-23T02:57:42;5.80;;;3.92;;
19830;SDS011;10076;52.008;4.708;2022-10-23T03:00:12;9.47;;;4.37;;
19830;SDS011;10076;52.008;4.708;2022-10-23T03:05:22;8.10;;;3.70;;
19830;SDS011;10076;52.008;4.708;2022-10-23T03:07:52;8.00;;;4.60;;
19830;SDS011;10076;52.008;4.708;2022-10-23T03:10:17;10.18;;;4.80;;
19830;SDS011;10076;52.008;4.708;2022-10-23T03:12:43;11.43;;;4.40;;
19830;SDS011;10076;52.008;4.708;2022-10-23T03:15:09;7.88;;;4.35;;
19830;SDS011;10076;52.008;4.708;2022-10-23T03:17:36;7.53;;;4.33;;
19830;SDS011;10076;52.008;4.708;2022-10-23T03:20:01;7.55;;;4.55;;
19830;SDS011;10076;52.008;4.708;2022-10-23T03:22:28;5.07;;;3.80;;
19830;SDS011;10076;52.008;4.708;2022-10-23T03:24:53;9.27;;;4.88;;
19830;SDS011;10076;52.008;4.708;2022-10-23T03:27:18;9.77;;;4.30;;
19830;SDS011;10076;52.008;4.708;2022-10-23T03:29:44;10.52;;;4.63;;
19830;SDS011;10076;52.008;4.708;2022-10-23T03:32:09;7.82;;;4.50;;
19830;SDS011;10076;52.008;4.708;2022-10-23T03:34:34;7.22;;;3.88;;
19830;SDS011;10076;52.008;4.708;2022-10-23T03:36:59;7.63;;;3.90;;
19830;SDS011;10076;52.008;4.708;2022-10-23T03:39:25;7.77;;;4.30;;
19830;SDS011;10076;52.008;4.708;2022-10-23T03:41:50;10.52;;;3.92;;
19830;SDS011;10076;52.008;4.708;2022-10-23T03:44:15;7.03;;;4.27;;
19830;SDS011;10076;52.008;4.708;2022-10-23T03:46:41;6.80;;;4.17;;
19830;SDS011;10076;52.008;4.708;2022-10-23T03:49:06;9.77;;;4.63;;
19830;SDS011;10076;52.008;4.708;2022-10-23T03:51:31;8.30;;;3.50;;
19830;SDS011;10076;52.008;4.708;2022-10-23T03:53:57;6.17;;;3.87;;
19830;SDS011;10076;52.008;4.708;2022-10-23T03:56:22;7.93;;;3.80;;
19830;SDS011;10076;52.008;4.708;2022-10-23T03:58:48;6.15;;;3.78;;
19830;SDS011;10076;52.008;4.708;2022-10-23T04:01:13;5.20;;;3.60;;
19830;SDS011;10076;52.008;4.708;2022-10-23T04:03:39;7.33;;;3.67;;
19830;SDS011;10076;52.008;4.708;2022-10-23T04:06:04;8.77;;;4.40;;
19830;SDS011;10076;52.008;4.708;2022-10-23T04:08:29;7.53;;;3.33;;
19830;SDS011;10076;52.008;4.708;2022-10-23T04:10:55;10.30;;;3.47;;
19830;SDS011;10076;52.008;4.708;2022-10-23T04:13:20;5.82;;;3.95;;
19830;SDS011;10076;52.008;4.708;2022-10-23T04:15:49;11.88;;;4.07;;
19830;SDS011;10076;52.008;4.708;2022-10-23T04:18:15;9.10;;;4.13;;
19830;SDS011;10076;52.008;4.708;2022-10-23T04:20:40;4.87;;;3.33;;
19830;SDS011;10076;52.008;4.708;2022-10-23T04:23:06;7.03;;;4.20;;
19830;SDS011;10076;52.008;4.708;2022-10-23T04:25:31;8.80;;;4.38;;
19830;SDS011;10076;52.008;4.708;2022-10-23T04:27:56;8.55;;;4.07;;
19830;SDS011;10076;52.008;4.708;2022-10-23T04:30:21;7.90;;;3.70;;
19830;SDS011;10076;52.008;4.708;2022-10-23T04:32:49;7.47;;;4.17;;
19830;SDS011;10076;52.008;4.708;2022-10-23T04:35:15;9.38;;;3.95;;
19830;SDS011;10076;52.008;4.708;2022-10-23T04:37:41;8.40;;;3.88;;
19830;SDS011;10076;52.008;4.708;2022-10-23T04:40:07;6.43;;;3.83;;
19830;SDS011;10076;52.008;4.708;2022-10-23T04:42:32;8.20;;;4.40;;
19830;SDS011;10076;52.008;4.708;2022-10-23T04:44:58;10.77;;;4.13;;
19830;SDS011;10076;52.008;4.708;2022-10-23T04:47:23;8.17;;;4.23;;
19830;SDS011;10076;52.008;4.708;2022-10-23T04:49:49;8.80;;;3.93;;
19830;SDS011;10076;52.008;4.708;2022-10-23T04:52:14;5.32;;;3.95;;
19830;SDS011;10076;52.008;4.708;2022-10-23T04:54:39;8.18;;;4.03;;
19830;SDS011;10076;52.008;4.708;2022-10-23T04:57:05;7.03;;;4.17;;
19830;SDS011;10076;52.008;4.708;2022-10-23T04:59:30;7.80;;;3.60;;
19830;SDS011;10076;52.008;4.708;2022-10-23T05:01:55;6.67;;;4.03;;
19830;SDS011;10076;52.008;4.708;2022-10-23T05:04:21;7.50;;;4.80;;
19830;SDS011;10076;52.008;4.708;2022-10-23T05:06:46;7.63;;;3.77;;
19830;SDS011;10076;52.008;4.708;2022-10-23T05:09:11;10.10;;;4.07;;
19830;SDS011;10076;52.008;4.708;2022-10-23T05:11:37;8.25;;;4.07;;
19830;SDS011;10076;52.008;4.708;2022-10-23T05:14:02;6.97;;;4.13;;
19830;SDS011;10076;52.008;4.708;2022-10-23T05:16:31;8.53;;;4.03;;
19830;SDS011;10076;52.008;4.708;2022-10-23T05:19:00;5.43;;;3.45;;
19830;SDS011;10076;52.008;4.708;2022-10-23T05:21:26;10.40;;;4.60;;
19830;SDS011;10076;52.008;4.708;2022-10-23T05:23:53;5.97;;;3.87;;
19830;SDS011;10076;52.008;4.708;2022-10-23T05:26:19;11.20;;;4.25;;
19830;SDS011;10076;52.008;4.708;2022-10-23T05:28:46;5.47;;;3.53;;
19830;SDS011;10076;52.008;4.708;2022-10-23T05:31:11;6.78;;;3.78;;
19830;SDS011;10076;52.008;4.708;2022-10-23T05:33:37;6.67;;;3.47;;
19830;SDS011;10076;52.008;4.708;2022-10-23T05:36:03;6.68;;;3.25;;
19830;SDS011;10076;52.008;4.708;2022-10-23T05:38:28;7.03;;;3.83;;
19830;SDS011;10076;52.008;4.708;2022-10-23T05:40:56;8.50;;;4.35;;
19830;SDS011;10076;52.008;4.708;2022-10-23T05:43:21;10.57;;;4.18;;
19830;SDS011;10076;52.008;4.708;2022-10-23T05:45:47;10.32;;;3.85;;
19830;SDS011;10076;52.008;4.708;2022-10-23T05:48:15;5.40;;;3.73;;
19830;SDS011;10076;52.008;4.708;2022-10-23T05:50:41;7.38;;;3.75;;
19830;SDS011;10076;52.008;4.708;2022-10-23T05:53:06;7.28;;;4.07;;
19830;SDS011;10076;52.008;4.708;2022-10-23T05:55:33;6.28;;;3.33;;
19830;SDS011;10076;52.008;4.708;2022-10-23T05:58:00;8.35;;;3.65;;
19830;SDS011;10076;52.008;4.708;2022-10-23T06:00:26;6.55;;;3.63;;
19830;SDS011;10076;52.008;4.708;2022-10-23T06:02:51;5.67;;;3.77;;
19830;SDS011;10076;52.008;4.708;2022-10-23T06:05:17;7.30;;;3.60;;
19830;SDS011;10076;52.008;4.708;2022-10-23T06:07:42;6.53;;;3.57;;
19830;SDS011;10076;52.008;4.708;2022-10-23T06:10:07;6.68;;;3.80;;
19830;SDS011;10076;52.008;4.708;2022-10-23T06:12:33;7.30;;;3.80;;
19830;SDS011;10076;52.008;4.708;2022-10-23T06:14:58;6.72;;;3.58;;
19830;SDS011;10076;52.008;4.708;2022-10-23T06:17:23;8.93;;;3.97;;
19830;SDS011;10076;52.008;4.708;2022-10-23T06:19:49;9.60;;;4.10;;
19830;SDS011;10076;52.008;4.708;2022-10-23T06:22:15;6.00;;;3.63;;
19830;SDS011;10076;52.008;4.708;2022-10-23T06:24:40;7.13;;;3.63;;
19830;SDS011;10076;52.008;4.708;2022-10-23T06:27:05;7.87;;;3.70;;
19830;SDS011;10076;52.008;4.708;2022-10-23T06:29:30;5.47;;;2.97;;
19830;SDS011;10076;52.008;4.708;2022-10-23T06:31:56;8.45;;;3.45;;
19830;SDS011;10076;52.008;4.708;2022-10-23T06:34:21;7.23;;;3.40;;
19830;SDS011;10076;52.008;4.708;2022-10-23T06:36:46;5.35;;;3.20;;
19830;SDS011;10076;52.008;4.708;2022-10-23T06:39:12;6.67;;;3.30;;
19830;SDS011;10076;52.008;4.708;2022-10-23T06:41:37;5.23;;;3.50;;
19830;SDS011;10076;52.008;4.708;2022-10-23T06:44:05;10.27;;;3.93;;
19830;SDS011;10076;52.008;4.708;2022-10-23T06:46:31;6.90;;;3.47;;
19830;SDS011;10076;52.008;4.708;2022-10-23T06:48:59;7.68;;;3.45;;
19830;SDS011;10076;52.008;4.708;2022-10-23T06:51:24;5.90;;;3.30;;
19830;SDS011;10076;52.008;4.708;2022-10-23T06:53:53;7.03;;;3.73;;
19830;SDS011;10076;52.008;4.708;2022-10-23T06:56:19;6.10;;;3.17;;
19830;SDS011;10076;52.008;4.708;2022-10-23T06:58:44;7.55;;;3.55;;
19830;SDS011;10076;52.008;4.708;2022-10-23T07:01:10;8.70;;;3.37;;
19830;SDS011;10076;52.008;4.708;2022-10-23T07:03:36;4.15;;;2.90;;
19830;SDS011;10076;52.008;4.708;2022-10-23T07:06:05;8.77;;;3.72;;
19830;SDS011;10076;52.008;4.708;2022-10-23T07:08:33;7.75;;;3.58;;
19830;SDS011;10076;52.008;4.708;2022-10-23T07:11:05;6.77;;;3.37;;
19830;SDS011;10076;52.008;4.708;2022-10-23T07:13:33;10.18;;;3.95;;
19830;SDS011;10076;52.008;4.708;2022-10-23T07:18:56;10.50;;;4.65;;
19830;SDS011;10076;52.008;4.708;2022-10-23T07:21:25;6.03;;;3.23;;
19830;SDS011;10076;52.008;4.708;2022-10-23T07:23:51;5.85;;;3.60;;
19830;SDS011;10076;52.008;4.708;2022-10-23T07:26:17;7.40;;;3.57;;
19830;SDS011;10076;52.008;4.708;2022-10-23T07:28:43;5.68;;;3.58;;
19830;SDS011;10076;52.008;4.708;2022-10-23T07:31:10;6.13;;;3.65;;
19830;SDS011;10076;52.008;4.708;2022-10-23T07:33:36;7.43;;;3.63;;
19830;SDS011;10076;52.008;4.708;2022-10-23T07:36:06;6.73;;;3.67;;
19830;SDS011;10076;52.008;4.708;2022-10-23T07:38:32;5.95;;;3.20;;
19830;SDS011;10076;52.008;4.708;2022-10-23T07:40:59;6.50;;;3.42;;
19830;SDS011;10076;52.008;4.708;2022-10-23T07:43:25;6.18;;;3.60;;
19830;SDS011;10076;52.008;4.708;2022-10-23T07:45:51;5.65;;;3.30;;
19830;SDS011;10076;52.008;4.708;2022-10-23T07:48:17;5.50;;;3.63;;
19830;SDS011;10076;52.008;4.708;2022-10-23T07:50:45;7.33;;;4.03;;
19830;SDS011;10076;52.008;4.708;2022-10-23T07:53:18;5.90;;;3.65;;
19830;SDS011;10076;52.008;4.708;2022-10-23T07:55:52;7.80;;;4.15;;
19830;SDS011;10076;52.008;4.708;2022-10-23T07:58:21;5.68;;;3.70;;
19830;SDS011;10076;52.008;4.708;2022-10-23T08:00:50;7.25;;;3.53;;
19830;SDS011;10076;52.008;4.708;2022-10-23T08:03:28;7.95;;;3.33;;
19830;SDS011;10076;52.008;4.708;2022-10-23T08:05:54;7.13;;;3.80;;
19830;SDS011;10076;52.008;4.708;2022-10-23T08:08:21;7.25;;;3.70;;
19830;SDS011;10076;52.008;4.708;2022-10-23T08:10:47;7.93;;;4.13;;
19830;SDS011;10076;52.008;4.708;2022-10-23T08:13:13;6.63;;;3.75;;
19830;SDS011;10076;52.008;4.708;2022-10-23T08:15:42;6.68;;;3.42;;
19830;SDS011;10076;52.008;4.708;2022-10-23T08:18:08;5.88;;;3.78;;
19830;SDS011;10076;52.008;4.708;2022-10-23T08:20:43;7.28;;;4.80;;
19830;SDS011;10076;52.008;4.708;2022-10-23T08:23:10;6.30;;;3.80;;
19830;SDS011;10076;52.008;4.708;2022-10-23T08:25:37;6.70;;;4.03;;
19830;SDS011;10076;52.008;4.708;2022-10-23T08:28:04;7.80;;;3.40;;
19830;SDS011;10076;52.008;4.708;2022-10-23T08:30:30;5.00;;;3.38;;
19830;SDS011;10076;52.008;4.708;2022-10-23T08:32:55;7.50;;;3.80;;
19830;SDS011;10076;52.008;4.708;2022-10-23T08:35:20;6.75;;;4.20;;
19830;SDS011;10076;52.008;4.708;2022-10-23T08:37:46;7.03;;;4.28;;
19830;SDS011;10076;52.008;4.708;2022-10-23T08:40:15;5.22;;;3.70;;
19830;SDS011;10076;52.008;4.708;2022-10-23T08:42:42;12.63;;;4.18;;
19830;SDS011;10076;52.008;4.708;2022-10-23T08:45:25;6.93;;;3.67;;
19830;SDS011;10076;52.008;4.708;2022-10-23T08:47:54;8.30;;;3.78;;
19830;SDS011;10076;52.008;4.708;2022-10-23T08:50:34;5.47;;;3.85;;
19830;SDS011;10076;52.008;4.708;2022-10-23T08:55:49;8.73;;;3.45;;
19830;SDS011;10076;52.008;4.708;2022-10-23T08:58:39;8.38;;;4.10;;
19830;SDS011;10076;52.008;4.708;2022-10-23T09:04:10;6.95;;;3.42;;
19830;SDS011;10076;52.008;4.708;2022-10-23T09:06:38;6.05;;;3.78;;
19830;SDS011;10076;52.008;4.708;2022-10-23T09:12:08;6.22;;;3.85;;
19830;SDS011;10076;52.008;4.708;2022-10-23T09:17:27;8.57;;;4.18;;
19830;SDS011;10076;52.008;4.708;2022-10-23T09:20:11;12.15;;;5.07;;
19830;SDS011;10076;52.008;4.708;2022-10-23T09:22:47;9.05;;;5.07;;
19830;SDS011;10076;52.008;4.708;2022-10-23T09:25:18;7.20;;;3.85;;
19830;SDS011;10076;52.008;4.708;2022-10-23T09:27:53;6.63;;;3.17;;
19830;SDS011;10076;52.008;4.708;2022-10-23T09:30:30;6.32;;;3.83;;
19830;SDS011;10076;52.008;4.708;2022-10-23T09:32:56;8.40;;;3.85;;
19830;SDS011;10076;52.008;4.708;2022-10-23T09:35:22;5.10;;;3.45;;
19830;SDS011;10076;52.008;4.708;2022-10-23T09:37:49;8.63;;;4.90;;
19830;SDS011;10076;52.008;4.708;2022-10-23T09:42:57;6.40;;;3.90;;
19830;SDS011;10076;52.008;4.708;2022-10-23T09:45:28;5.47;;;3.40;;
19830;SDS011;10076;52.008;4.708;2022-10-23T09:48:16;4.60;;;3.30;;
19830;SDS011;10076;52.008;4.708;2022-10-23T09:53:24;12.93;;;3.97;;
19830;SDS011;10076;52.008;4.708;2022-10-23T09:55:56;6.90;;;3.60;;
19830;SDS011;10076;52.008;4.708;2022-10-23T09:58:34;8.38;;;3.80;;
19830;SDS011;10076;52.008;4.708;2022-10-23T10:01:03;6.35;;;3.58;;
19830;SDS011;10076;52.008;4.708;2022-10-23T10:03:29;7.18;;;3.63;;
19830;SDS011;10076;52.008;4.708;2022-10-23T10:06:03;6.22;;;3.83;;
19830;SDS011;10076;52.008;4.708;2022-10-23T10:08:38;7.72;;;4.00;;
19830;SDS011;10076;52.008;4.708;2022-10-23T10:11:15;7.15;;;4.18;;
19830;SDS011;10076;52.008;4.708;2022-10-23T10:16:28;6.68;;;3.80;;
19830;SDS011;10076;52.008;4.708;2022-10-23T10:24:11;6.78;;;3.70;;
19830;SDS011;10076;52.008;4.708;2022-10-23T10:27:02;5.47;;;3.95;;
19830;SDS011;10076;52.008;4.708;2022-10-23T10:34:52;7.07;;;3.67;;
19830;SDS011;10076;52.008;4.708;2022-10-23T10:42:25;6.40;;;3.83;;
19830;SDS011;10076;52.008;4.708;2022-10-23T10:53:30;5.82;;;3.63;;
19830;SDS011;10076;52.008;4.708;2022-10-23T10:56:07;5.75;;;3.60;;
19830;SDS011;10076;52.008;4.708;2022-10-23T11:01:31;6.47;;;4.20;;
19830;SDS011;10076;52.008;4.708;2022-10-23T11:04:12;6.18;;;4.25;;
19830;SDS011;10076;52.008;4.708;2022-10-23T11:06:47;7.10;;;3.85;;
19830;SDS011;10076;52.008;4.708;2022-10-23T11:09:22;6.05;;;3.85;;
19830;SDS011;10076;52.008;4.708;2022-10-23T11:11:49;6.57;;;3.78;;
19830;SDS011;10076;52.008;4.708;2022-10-23T11:14:15;6.65;;;4.35;;
19830;SDS011;10076;52.008;4.708;2022-10-23T11:16:44;8.48;;;3.83;;
19830;SDS011;10076;52.008;4.708;2022-10-23T11:19:21;4.03;;;3.03;;
19830;SDS011;10076;52.008;4.708;2022-10-23T11:21:55;7.97;;;3.95;;
19830;SDS011;10076;52.008;4.708;2022-10-23T11:33:30;7.10;;;3.40;;
19830;SDS011;10076;52.008;4.708;2022-10-23T11:36:19;5.60;;;3.10;;
19830;SDS011;10076;52.008;4.708;2022-10-23T11:39:04;8.02;;;4.03;;
19830;SDS011;10076;52.008;4.708;2022-10-23T11:41:45;4.40;;;2.70;;
19830;SDS011;10076;52.008;4.708;2022-10-23T11:52:36;7.97;;;3.50;;
19830;SDS011;10076;52.008;4.708;2022-10-23T11:55:23;4.80;;;3.03;;
19830;SDS011;10076;52.008;4.708;2022-10-23T11:58:04;6.60;;;2.92;;
19830;SDS011;10076;52.008;4.708;2022-10-23T12:00:33;4.93;;;2.83;;
19830;SDS011;10076;52.008;4.708;2022-10-23T12:03:03;5.18;;;2.97;;
19830;SDS011;10076;52.008;4.708;2022-10-23T12:05:34;6.18;;;2.90;;
19830;SDS011;10076;52.008;4.708;2022-10-23T12:08:04;5.53;;;2.58;;
19830;SDS011;10076;52.008;4.708;2022-10-23T12:10:45;3.92;;;2.47;;
19830;SDS011;10076;52.008;4.708;2022-10-23T12:15:58;3.88;;;2.50;;
19830;SDS011;10076;52.008;4.708;2022-10-23T12:18:23;4.93;;;2.30;;
19830;SDS011;10076;52.008;4.708;2022-10-23T12:20:50;5.22;;;2.40;;
19830;SDS011;10076;52.008;4.708;2022-10-23T12:35:05;5.03;;;2.33;;
19830;SDS011;10076;52.008;4.708;2022-10-23T12:40:08;3.90;;;2.08;;
19830;SDS011;10076;52.008;4.708;2022-10-23T12:42:34;3.67;;;2.15;;
19830;SDS011;10076;52.008;4.708;2022-10-23T12:45:02;3.92;;;2.10;;
19830;SDS011;10076;52.008;4.708;2022-10-23T12:47:39;3.30;;;2.08;;
19830;SDS011;10076;52.008;4.708;2022-10-23T12:50:15;3.85;;;2.03;;
19830;SDS011;10076;52.008;4.708;2022-10-23T12:55:18;6.20;;;2.35;;
19830;SDS011;10076;52.008;4.708;2022-10-23T12:57:43;4.88;;;2.17;;
19830;SDS011;10076;52.008;4.708;2022-10-23T13:00:13;2.75;;;1.85;;
19830;SDS011;10076;52.008;4.708;2022-10-23T13:02:40;7.80;;;2.25;;
19830;SDS011;10076;52.008;4.708;2022-10-23T13:05:06;7.88;;;2.80;;
19830;SDS011;10076;52.008;4.708;2022-10-23T13:07:39;4.53;;;2.42;;
19830;SDS011;10076;52.008;4.708;2022-10-23T13:10:18;3.92;;;2.17;;
19830;SDS011;10076;52.008;4.708;2022-10-23T13:12:51;4.90;;;2.08;;
19830;SDS011;10076;52.008;4.708;2022-10-23T13:15:20;4.93;;;2.10;;
19830;SDS011;10076;52.008;4.708;2022-10-23T13:17:58;3.13;;;1.70;;
19830;SDS011;10076;52.008;4.708;2022-10-23T13:20:27;2.15;;;1.83;;
19830;SDS011;10076;52.008;4.708;2022-10-23T13:25:54;2.67;;;2.13;;
19830;SDS011;10076;52.008;4.708;2022-10-23T13:28:40;2.35;;;1.83;;
19830;SDS011;10076;52.008;4.708;2022-10-23T13:34:02;5.70;;;2.35;;
19830;SDS011;10076;52.008;4.708;2022-10-23T13:36:30;3.15;;;1.77;;
19830;SDS011;10076;52.008;4.708;2022-10-23T13:39:20;2.50;;;1.77;;
19830;SDS011;10076;52.008;4.708;2022-10-23T13:41:47;3.63;;;1.88;;
19830;SDS011;10076;52.008;4.708;2022-10-23T13:44:13;3.97;;;1.98;;
19830;SDS011;10076;52.008;4.708;2022-10-23T13:46:40;7.20;;;2.42;;
19830;SDS011;10076;52.008;4.708;2022-10-23T13:49:07;3.83;;;2.45;;
19830;SDS011;10076;52.008;4.708;2022-10-23T13:51:33;3.03;;;1.80;;
19830;SDS011;10076;52.008;4.708;2022-10-23T13:54:05;4.50;;;2.10;;
19830;SDS011;10076;52.008;4.708;2022-10-23T13:56:37;2.72;;;2.00;;
19830;SDS011;10076;52.008;4.708;2022-10-23T13:59:02;3.92;;;2.00;;
19830;SDS011;10076;52.008;4.708;2022-10-23T14:01:28;5.93;;;1.83;;
19830;SDS011;10076;52.008;4.708;2022-10-23T14:03:56;5.13;;;2.35;;
19830;SDS011;10076;52.008;4.708;2022-10-23T14:06:23;5.25;;;2.55;;
19830;SDS011;10076;52.008;4.708;2022-10-23T14:08:48;4.55;;;2.42;;
19830;SDS011;10076;52.008;4.708;2022-10-23T14:11:14;3.97;;;2.42;;
19830;SDS011;10076;52.008;4.708;2022-10-23T14:13:41;3.28;;;2.42;;
19830;SDS011;10076;52.008;4.708;2022-10-23T14:16:07;3.83;;;2.13;;
19830;SDS011;10076;52.008;4.708;2022-10-23T14:18:35;5.85;;;2.35;;
19830;SDS011;10076;52.008;4.708;2022-10-23T14:21:01;6.15;;;2.35;;
19830;SDS011;10076;52.008;4.708;2022-10-23T14:23:27;3.67;;;2.47;;
19830;SDS011;10076;52.008;4.708;2022-10-23T14:25:53;3.40;;;2.30;;
19830;SDS011;10076;52.008;4.708;2022-10-23T14:28:18;4.25;;;2.63;;
19830;SDS011;10076;52.008;4.708;2022-10-23T14:30:43;3.17;;;2.17;;
19830;SDS011;10076;52.008;4.708;2022-10-23T14:33:09;4.28;;;1.98;;
19830;SDS011;10076;52.008;4.708;2022-10-23T14:35:38;2.55;;;2.13;;
19830;SDS011;10076;52.008;4.708;2022-10-23T14:38:04;2.63;;;2.08;;
19830;SDS011;10076;52.008;4.708;2022-10-23T14:40:30;2.83;;;1.80;;
19830;SDS011;10076;52.008;4.708;2022-10-23T14:42:55;3.20;;;1.92;;
19830;SDS011;10076;52.008;4.708;2022-10-23T14:45:20;5.97;;;2.20;;
19830;SDS011;10076;52.008;4.708;2022-10-23T14:47:46;6.32;;;2.58;;
19830;SDS011;10076;52.008;4.708;2022-10-23T14:50:12;3.38;;;1.98;;
19830;SDS011;10076;52.008;4.708;2022-10-23T14:52:37;4.28;;;2.10;;
19830;SDS011;10076;52.008;4.708;2022-10-23T14:55:03;3.80;;;1.88;;
19830;SDS011;10076;52.008;4.708;2022-10-23T14:57:28;2.85;;;2.30;;
19830;SDS011;10076;52.008;4.708;2022-10-23T14:59:53;4.65;;;2.58;;
19830;SDS011;10076;52.008;4.708;2022-10-23T15:02:19;5.95;;;2.58;;
19830;SDS011;10076;52.008;4.708;2022-10-23T15:04:44;5.53;;;2.03;;
19830;SDS011;10076;52.008;4.708;2022-10-23T15:07:09;3.17;;;1.90;;
19830;SDS011;10076;52.008;4.708;2022-10-23T15:09:35;6.13;;;2.03;;
19830;SDS011;10076;52.008;4.708;2022-10-23T15:12:01;3.50;;;2.28;;
19830;SDS011;10076;52.008;4.708;2022-10-23T15:14:27;3.28;;;2.08;;
19830;SDS011;10076;52.008;4.708;2022-10-23T15:16:53;3.38;;;2.00;;
19830;SDS011;10076;52.008;4.708;2022-10-23T15:19:18;5.60;;;2.20;;
19830;SDS011;10076;52.008;4.708;2022-10-23T15:21:43;4.95;;;2.22;;
19830;SDS011;10076;52.008;4.708;2022-10-23T15:24:09;4.93;;;2.30;;
19830;SDS011;10076;52.008;4.708;2022-10-23T15:26:35;4.00;;;2.15;;
19830;SDS011;10076;52.008;4.708;2022-10-23T15:29:02;4.38;;;1.73;;
19830;SDS011;10076;52.008;4.708;2022-10-23T15:33:52;2.83;;;2.15;;
19830;SDS011;10076;52.008;4.708;2022-10-23T15:36:18;4.38;;;2.10;;
19830;SDS011;10076;52.008;4.708;2022-10-23T15:38:43;4.78;;;1.85;;
19830;SDS011;10076;52.008;4.708;2022-10-23T15:41:12;4.68;;;2.67;;
19830;SDS011;10076;52.008;4.708;2022-10-23T15:43:39;5.60;;;2.17;;
19830;SDS011;10076;52.008;4.708;2022-10-23T15:46:04;3.90;;;2.20;;
19830;SDS011;10076;52.008;4.708;2022-10-23T15:48:29;4.18;;;1.92;;
19830;SDS011;10076;52.008;4.708;2022-10-23T15:50:54;6.38;;;2.20;;
19830;SDS011;10076;52.008;4.708;2022-10-23T15:53:20;5.43;;;2.05;;
19830;SDS011;10076;52.008;4.708;2022-10-23T15:55:45;6.47;;;2.40;;
19830;SDS011;10076;52.008;4.708;2022-10-23T15:58:10;2.47;;;1.60;;
19830;SDS011;10076;52.008;4.708;2022-10-23T16:00:36;10.43;;;3.60;;
19830;SDS011;10076;52.008;4.708;2022-10-23T16:03:02;2.53;;;1.95;;
19830;SDS011;10076;52.008;4.708;2022-10-23T16:05:27;2.97;;;2.08;;
19830;SDS011;10076;52.008;4.708;2022-10-23T16:07:53;3.55;;;2.13;;
19830;SDS011;10076;52.008;4.708;2022-10-23T16:10:18;3.58;;;2.38;;
19830;SDS011;10076;52.008;4.708;2022-10-23T16:12:45;5.38;;;2.25;;
19830;SDS011;10076;52.008;4.708;2022-10-23T16:15:10;4.38;;;2.00;;
19830;SDS011;10076;52.008;4.708;2022-10-23T16:17:35;3.78;;;2.10;;
19830;SDS011;10076;52.008;4.708;2022-10-23T16:20:00;6.18;;;2.22;;
19830;SDS011;10076;52.008;4.708;2022-10-23T16:22:26;3.08;;;1.80;;
19830;SDS011;10076;52.008;4.708;2022-10-23T16:24:51;4.13;;;2.00;;
19830;SDS011;10076;52.008;4.708;2022-10-23T16:27:16;5.97;;;2.25;;
19830;SDS011;10076;52.008;4.708;2022-10-23T16:29:42;6.63;;;2.30;;
19830;SDS011;10076;52.008;4.708;2022-10-23T16:32:07;4.75;;;2.80;;
19830;SDS011;10076;52.008;4.708;2022-10-23T16:34:32;4.22;;;2.13;;
19830;SDS011;10076;52.008;4.708;2022-10-23T16:36:58;5.53;;;2.28;;
19830;SDS011;10076;52.008;4.708;2022-10-23T16:39:23;13.68;;;2.95;;
19830;SDS011;10076;52.008;4.708;2022-10-23T16:41:48;6.97;;;2.72;;
19830;SDS011;10076;52.008;4.708;2022-10-23T16:44:13;6.22;;;2.38;;
19830;SDS011;10076;52.008;4.708;2022-10-23T16:46:39;3.33;;;2.20;;
19830;SDS011;10076;52.008;4.708;2022-10-23T16:49:04;3.80;;;2.10;;
19830;SDS011;10076;52.008;4.708;2022-10-23T16:51:32;5.07;;;2.17;;
19830;SDS011;10076;52.008;4.708;2022-10-23T16:53:58;2.83;;;1.83;;
19830;SDS011;10076;52.008;4.708;2022-10-23T16:56:24;4.53;;;1.90;;
19830;SDS011;10076;52.008;4.708;2022-10-23T16:58:55;5.53;;;1.88;;
19830;SDS011;10076;52.008;4.708;2022-10-23T17:01:23;8.65;;;2.90;;
19830;SDS011;10076;52.008;4.708;2022-10-23T17:03:53;2.90;;;2.25;;
19830;SDS011;10076;52.008;4.708;2022-10-23T17:06:30;2.85;;;1.98;;